Time;durP1;ratioP1;P1;durP2;ratioP2;P2;SDS_P1;SDS_P2;PMS_P1;PMS_P2;Temp;Humidity;BMP_temperature;BMP_pressure;BME280_temperature;BME280_humidity;BME280_pressure;Samples;Min_cycle;Max_cycle;Signal;HPM_P1;HPM_P2
2022/12/14 00:02:20;;;;;;;;;;;;;;;;;;5132974;28;19960;-83
2022/12/14 00:04:46;;;;;;;;;;;;;;;;;;5114932;28;19939;-84
2022/12/14 00:07:12;;;;;;;;;;;;;;;;;;5114954;28;19904;-84
2022/12/14 00:09:38;;;;;;;;;;;;;;;;;;5133179;28;20413;-84
2022/12/14 00:12:04;;;;;;;;;;;;;;;;;;5114968;28;19907;-84
2022/12/14 00:14:29;;;;;;;;;;;;;;;;;;5123063;28;19915;-84
2022/12/14 00:16:55;;;;;;;;;;;;;;;;;;5111240;28;19907;-84
2022/12/14 00:19:22;;;;;;;;;;;;;;;;;;5119988;28;19992;-84
2022/12/14 00:21:47;;;;;;;;;;;;;;;;;;5114665;28;20018;-84
2022/12/14 00:24:13;;;;;;;;;;;;;;;;;;5133050;28;19962;-84
2022/12/14 00:26:39;;;;;;;;;;;;;;;;;;5133208;28;19907;-84
2022/12/14 00:29:05;;;;;;;;;;;;;;;;;;5136220;27;19915;-84
2022/12/14 00:31:31;;;;;;;;;;;;;;;;;;5137076;27;19904;-84
2022/12/14 00:33:57;;;;;;;;;;;;;;;;;;5118600;27;19911;-84
2022/12/14 00:36:23;;;;;;;;;;;;;;;;;;5124003;27;19969;-84
2022/12/14 00:38:49;;;;;;;;;;;;;;;;;;5116264;28;19923;-84
2022/12/14 00:41:15;;;;;;;;;;;;;;;;;;5116181;28;19923;-84
2022/12/14 00:43:41;;;;;;;;;;;;;;;;;;5097819;28;19900;-84
2022/12/14 00:46:07;;;;;;;;;;;;;;;;;;5116186;28;19911;-84
2022/12/14 00:48:33;;;;;;;;;;;;;;;;;;5116168;28;19965;-84
2022/12/14 00:50:59;;;;;;;;;;;;;;;;;;5116157;28;19911;-84
2022/12/14 00:53:25;;;;;;;;;;;;;;;;;;5116099;28;19907;-84
2022/12/14 00:55:51;;;;;;;;;;;;;;;;;;5097624;28;19911;-84
2022/12/14 00:58:17;;;;;;;;;;;;;;;;;;5097614;28;19911;-84
2022/12/14 01:00:43;;;;;;;;;;;;;;;;;;5097502;28;20359;-84
2022/12/14 01:03:09;;;;;;;;;;;;;;;;;;5115602;28;20053;-84
2022/12/14 01:05:35;;;;;;;;;;;;;;;;;;5097267;28;19994;-84
2022/12/14 01:08:01;;;;;;;;;;;;;;;;;;5097344;28;19903;-84
2022/12/14 01:10:27;;;;;;;;;;;;;;;;;;5097205;28;19904;-84
2022/12/14 01:12:52;;;;;;;;;;;;;;;;;;5115598;28;19915;-84
2022/12/14 01:15:18;;;;;;;;;;;;;;;;;;5132986;27;19928;-84
2022/12/14 01:17:44;;;;;;;;;;;;;;;;;;5117600;27;19899;-84
2022/12/14 01:20:10;;;;;;;;;;;;;;;;;;5117876;27;19904;-84
2022/12/14 01:22:36;;;;;;;;;;;;;;;;;;5117741;27;19907;-84
2022/12/14 01:25:02;;;;;;;;;;;;;;;;;;5136148;27;20022;-84
2022/12/14 01:27:28;;;;;;;;;;;;;;;;;;5135694;27;19919;-84
2022/12/14 01:29:54;;;;;;;;;;;;;;;;;;5135798;27;19907;-84
2022/12/14 01:32:20;;;;;;;;;;;;;;;;;;5135955;27;19907;-84
2022/12/14 01:34:46;;;;;;;;;;;;;;;;;;5135521;27;20299;-84
2022/12/14 01:37:12;;;;;;;;;;;;;;;;;;5135152;27;19912;-84
2022/12/14 01:39:38;;;;;;;;;;;;;;;;;;5135037;27;20322;-84
2022/12/14 01:42:04;;;;;;;;;;;;;;;;;;5135419;27;20667;-84
2022/12/14 01:44:30;;;;;;;;;;;;;;;;;;5135445;27;19965;-84
2022/12/14 01:46:56;;;;;;;;;;;;;;;;;;5116986;27;19903;-84
2022/12/14 01:49:22;;;;;;;;;;;;;;;;;;5135561;27;19941;-84
2022/12/14 01:51:47;;;;;;;;;;;;;;;;;;5116940;27;19907;-83
2022/12/14 01:54:13;;;;;;;;;;;;;;;;;;5117017;27;19914;-84
2022/12/14 01:56:39;;;;;;;;;;;;;;;;;;5135503;27;19915;-84
2022/12/14 01:59:06;;;;;;;;;;;;;;;;;;5135329;27;19952;-84
2022/12/14 02:01:32;;;;;;;;;;;;;;;;;;5135274;27;19968;-84
2022/12/14 02:03:58;;;;;;;;;;;;;;;;;;5134990;27;19943;-84
2022/12/14 02:06:24;;;;;;;;;;;;;;;;;;5116964;27;19948;-83
2022/12/14 02:08:50;;;;;;;;;;;;;;;;;;5135172;27;19914;-84
2022/12/14 02:11:15;;;;;;;;;;;;;;;;;;5135148;27;20361;-84
2022/12/14 02:13:41;;;;;;;;;;;;;;;;;;5113043;28;19957;-83
2022/12/14 02:16:07;;;;;;;;;;;;;;;;;;5114547;28;19912;-84
2022/12/14 02:18:33;;;;;;;;;;;;;;;;;;5114917;27;19949;-84
2022/12/14 02:21:00;;;;;;;;;;;;;;;;;;5130187;27;20354;-84
2022/12/14 02:23:26;;;;;;;;;;;;;;;;;;5134723;27;19915;-83
2022/12/14 02:25:52;;;;;;;;;;;;;;;;;;5134763;27;20713;-84
2022/12/14 02:28:18;;;;;;;;;;;;;;;;;;5116102;27;20425;-83
2022/12/14 02:30:44;;;;;;;;;;;;;;;;;;5115953;27;19904;-84
2022/12/14 02:33:09;;;;;;;;;;;;;;;;;;5134624;27;19907;-83
2022/12/14 02:35:35;;;;;;;;;;;;;;;;;;5134140;27;19911;-84
2022/12/14 02:38:01;;;;;;;;;;;;;;;;;;5134417;27;19911;-84
2022/12/14 02:40:27;;;;;;;;;;;;;;;;;;5134412;27;19910;-84
2022/12/14 02:42:53;;;;;;;;;;;;;;;;;;5134282;27;19944;-84
2022/12/14 02:45:19;;;;;;;;;;;;;;;;;;5134317;27;19908;-83
2022/12/14 02:47:45;;;;;;;;;;;;;;;;;;5134351;27;20403;-84
2022/12/14 02:50:11;;;;;;;;;;;;;;;;;;5134487;27;19904;-83
2022/12/14 02:52:37;;;;;;;;;;;;;;;;;;5133337;27;19907;-84
2022/12/14 02:55:03;;;;;;;;;;;;;;;;;;5134300;27;20010;-84
2022/12/14 02:57:29;;;;;;;;;;;;;;;;;;5134079;27;19904;-84
2022/12/14 02:59:55;;;;;;;;;;;;;;;;;;5134130;27;19903;-84
2022/12/14 03:02:21;;;;;;;;;;;;;;;;;;5132628;27;19907;-84
2022/12/14 03:04:47;;;;;;;;;;;;;;;;;;5133886;27;19961;-84
2022/12/14 03:07:13;;;;;;;;;;;;;;;;;;5133956;27;19936;-84
2022/12/14 03:09:39;;;;;;;;;;;;;;;;;;5132800;27;19955;-83
2022/12/14 03:12:05;;;;;;;;;;;;;;;;;;5134022;27;19925;-84
2022/12/14 03:14:30;;;;;;;;;;;;;;;;;;5133866;27;20382;-84
2022/12/14 03:16:56;;;;;;;;;;;;;;;;;;5133898;27;19903;-84
2022/12/14 03:19:23;;;;;;;;;;;;;;;;;;5125115;27;19904;-83
2022/12/14 03:21:49;;;;;;;;;;;;;;;;;;5095013;28;20345;-84
2022/12/14 03:24:14;;;;;;;;;;;;;;;;;;5113417;28;19918;-84
2022/12/14 03:26:40;;;;;;;;;;;;;;;;;;5113668;27;19903;-84
2022/12/14 03:29:06;;;;;;;;;;;;;;;;;;5133575;27;20016;-83
2022/12/14 03:31:32;;;;;;;;;;;;;;;;;;5115186;27;19904;-83
2022/12/14 03:33:58;;;;;;;;;;;;;;;;;;5133819;27;19951;-83
2022/12/14 03:36:24;;;;;;;;;;;;;;;;;;5119772;27;19911;-84
2022/12/14 03:38:50;;;;;;;;;;;;;;;;;;5113293;28;19904;-84
2022/12/14 03:41:16;;;;;;;;;;;;;;;;;;5113232;28;19950;-84
2022/12/14 03:43:42;;;;;;;;;;;;;;;;;;5113165;28;19903;-84
2022/12/14 03:46:08;;;;;;;;;;;;;;;;;;5113026;28;19974;-84
2022/12/14 03:48:34;;;;;;;;;;;;;;;;;;5113186;28;19904;-84
2022/12/14 03:51:00;;;;;;;;;;;;;;;;;;5111751;28;19914;-84
2022/12/14 03:53:26;;;;;;;;;;;;;;;;;;5113145;28;19967;-84
2022/12/14 03:55:52;;;;;;;;;;;;;;;;;;5113029;28;20267;-84
2022/12/14 03:58:18;;;;;;;;;;;;;;;;;;5113030;28;20274;-84
2022/12/14 04:00:44;;;;;;;;;;;;;;;;;;5112982;28;20319;-84
2022/12/14 04:03:09;;;;;;;;;;;;;;;;;;5115229;28;19904;-84
2022/12/14 04:05:35;;;;;;;;;;;;;;;;;;5115625;28;19962;-83
2022/12/14 04:08:01;;;;;;;;;;;;;;;;;;5116905;28;19930;-84
2022/12/14 04:18:58;;;;;;;;;;;;;;;;;;5119197;27;21801;-84
2022/12/14 04:21:24;;;;;;;;;;;;;;;;;;5118810;27;20349;-84
2022/12/14 04:26:35;;;;;;;;;;;;;;;;;;5137487;27;19913;-84
2022/12/14 04:31:46;;;;;;;;;;;;;;;;;;5137287;27;19929;-83
2022/12/14 04:34:12;;;;;;;;;;;;;;;;;;5137226;27;19903;-84
2022/12/14 04:36:37;;;;;;;;;;;;;;;;;;5134461;27;19914;-84
2022/12/14 04:39:03;;;;;;;;;;;;;;;;;;5118135;27;19907;-84
2022/12/14 04:41:29;;;;;;;;;;;;;;;;;;5136868;27;19908;-83
2022/12/14 04:43:56;;;;;;;;;;;;;;;;;;5135629;27;19907;-84
2022/12/14 04:46:22;;;;;;;;;;;;;;;;;;5136871;27;19904;-83
2022/12/14 04:48:48;;;;;;;;;;;;;;;;;;5135619;27;20354;-84
2022/12/14 04:51:13;;;;;;;;;;;;;;;;;;5135587;27;20261;-83
2022/12/14 04:53:39;;;;;;;;;;;;;;;;;;5136059;27;19908;-83
2022/12/14 04:56:05;;;;;;;;;;;;;;;;;;5136994;27;20242;-83
2022/12/14 04:58:31;;;;;;;;;;;;;;;;;;5136811;27;20242;-83
2022/12/14 05:00:57;;;;;;;;;;;;;;;;;;5136968;27;19929;-84
2022/12/14 05:03:23;;;;;;;;;;;;;;;;;;5136829;27;20273;-84
2022/12/14 05:05:49;;;;;;;;;;;;;;;;;;5138452;27;19907;-83
2022/12/14 05:08:16;;;;;;;;;;;;;;;;;;5136630;27;19903;-83
2022/12/14 05:10:42;;;;;;;;;;;;;;;;;;5136648;27;19903;-83
2022/12/14 05:13:08;;;;;;;;;;;;;;;;;;5136229;27;19980;-83
2022/12/14 05:15:34;;;;;;;;;;;;;;;;;;5096543;28;20021;-83
2022/12/14 05:18:00;;;;;;;;;;;;;;;;;;5115675;28;19987;-83
2022/12/14 05:20:26;;;;;;;;;;;;;;;;;;5115052;27;19904;-83
2022/12/14 05:22:52;;;;;;;;;;;;;;;;;;5118122;27;19912;-83
2022/12/14 05:25:18;;;;;;;;;;;;;;;;;;5136081;27;19966;-83
2022/12/14 05:27:45;;;;;;;;;;;;;;;;;;5135794;27;20006;-84
2022/12/14 05:30:11;;;;;;;;;;;;;;;;;;5136036;27;19910;-84
2022/12/14 05:32:36;;;;;;;;;;;;;;;;;;5117567;27;19903;-84
2022/12/14 05:35:02;;;;;;;;;;;;;;;;;;5133322;27;19903;-84
2022/12/14 05:37:28;;;;;;;;;;;;;;;;;;5121464;27;20322;-84
2022/12/14 05:39:54;;;;;;;;;;;;;;;;;;5117286;27;20326;-83
2022/12/14 05:42:20;;;;;;;;;;;;;;;;;;5135680;27;20246;-84
2022/12/14 05:44:46;;;;;;;;;;;;;;;;;;5135582;27;20366;-83
2022/12/14 05:47:12;;;;;;;;;;;;;;;;;;5135469;27;19904;-83
2022/12/14 05:49:38;;;;;;;;;;;;;;;;;;5117103;27;19903;-84
2022/12/14 05:52:04;;;;;;;;;;;;;;;;;;5135714;27;19907;-84
2022/12/14 05:54:30;;;;;;;;;;;;;;;;;;5117229;27;19975;-84
2022/12/14 05:56:56;;;;;;;;;;;;;;;;;;5135419;27;20410;-84
2022/12/14 05:59:22;;;;;;;;;;;;;;;;;;5135316;27;20270;-84
2022/12/14 06:01:48;;;;;;;;;;;;;;;;;;5116757;27;20242;-84
2022/12/14 06:04:14;;;;;;;;;;;;;;;;;;5135333;27;20004;-83
2022/12/14 06:06:40;;;;;;;;;;;;;;;;;;5135256;27;20215;-84
2022/12/14 06:09:06;;;;;;;;;;;;;;;;;;5135135;27;19997;-83
2022/12/14 06:11:32;;;;;;;;;;;;;;;;;;5134440;27;19903;-83
2022/12/14 06:13:58;;;;;;;;;;;;;;;;;;5112184;28;19972;-83
2022/12/14 06:16:24;;;;;;;;;;;;;;;;;;5113831;28;20032;-84
2022/12/14 06:18:50;;;;;;;;;;;;;;;;;;5118353;27;19907;-83
2022/12/14 06:21:16;;;;;;;;;;;;;;;;;;5134749;27;19994;-84
2022/12/14 06:23:42;;;;;;;;;;;;;;;;;;5116389;27;19911;-83
2022/12/14 06:26:07;;;;;;;;;;;;;;;;;;5116112;27;19946;-84
2022/12/14 06:28:33;;;;;;;;;;;;;;;;;;5134261;27;20422;-84
2022/12/14 06:30:59;;;;;;;;;;;;;;;;;;5134517;27;20578;-84
2022/12/14 06:33:25;;;;;;;;;;;;;;;;;;5134510;27;19909;-84
2022/12/14 06:35:51;;;;;;;;;;;;;;;;;;5125028;27;20334;-83
2022/12/14 06:38:17;;;;;;;;;;;;;;;;;;5114140;28;19998;-84
2022/12/14 06:40:43;;;;;;;;;;;;;;;;;;5113975;28;19904;-83
2022/12/14 06:43:09;;;;;;;;;;;;;;;;;;5114020;28;19908;-83
2022/12/14 06:45:35;;;;;;;;;;;;;;;;;;5095461;28;20285;-84
2022/12/14 06:48:01;;;;;;;;;;;;;;;;;;5095541;28;20345;-84
2022/12/14 06:50:27;;;;;;;;;;;;;;;;;;5113727;28;19904;-84
2022/12/14 06:52:56;;;;;;;;;;;;;;;;;;5095464;28;19908;-84
2022/12/14 06:55:22;;;;;;;;;;;;;;;;;;5113816;28;19908;-83
2022/12/14 06:57:48;;;;;;;;;;;;;;;;;;5113660;28;19904;-84
2022/12/14 07:00:14;;;;;;;;;;;;;;;;;;5113544;28;20373;-84
2022/12/14 07:02:40;;;;;;;;;;;;;;;;;;5113596;28;20379;-84
2022/12/14 07:05:06;;;;;;;;;;;;;;;;;;5113356;28;20416;-84
2022/12/14 07:07:32;;;;;;;;;;;;;;;;;;5095308;28;20273;-84
2022/12/14 07:09:58;;;;;;;;;;;;;;;;;;5095269;28;19904;-84
2022/12/14 07:12:24;;;;;;;;;;;;;;;;;;5113561;28;19903;-84
2022/12/14 07:14:49;;;;;;;;;;;;;;;;;;5113126;28;19916;-84
2022/12/14 07:17:15;;;;;;;;;;;;;;;;;;5112101;28;19904;-84
2022/12/14 07:19:41;;;;;;;;;;;;;;;;;;5113546;28;19908;-84
2022/12/14 07:22:07;;;;;;;;;;;;;;;;;;5114853;27;19907;-83
2022/12/14 07:24:33;;;;;;;;;;;;;;;;;;5133694;27;19946;-84
2022/12/14 07:26:59;;;;;;;;;;;;;;;;;;5133669;27;20342;-83
2022/12/14 07:29:25;;;;;;;;;;;;;;;;;;5133331;27;20139;-83
2022/12/14 07:31:51;;;;;;;;;;;;;;;;;;5133669;27;19910;-83
2022/12/14 07:34:17;;;;;;;;;;;;;;;;;;5115244;27;19968;-84
2022/12/14 07:36:43;;;;;;;;;;;;;;;;;;5133241;27;19907;-84
2022/12/14 07:39:09;;;;;;;;;;;;;;;;;;5094303;28;19939;-83
2022/12/14 07:41:35;;;;;;;;;;;;;;;;;;5106860;28;20349;-84
2022/12/14 07:44:01;;;;;;;;;;;;;;;;;;5121185;28;20272;-83
2022/12/14 07:46:27;;;;;;;;;;;;;;;;;;5127136;28;19993;-83
2022/12/14 07:48:53;;;;;;;;;;;;;;;;;;5129805;28;20002;-84
2022/12/14 07:51:19;;;;;;;;;;;;;;;;;;5094692;28;19904;-84
2022/12/14 07:53:45;;;;;;;;;;;;;;;;;;5101362;28;19911;-83
2022/12/14 07:56:11;;;;;;;;;;;;;;;;;;5133445;28;20192;-84
2022/12/14 07:58:37;;;;;;;;;;;;;;;;;;5133447;28;19915;-83
2022/12/14 08:01:03;;;;;;;;;;;;;;;;;;5128420;28;19904;-83
2022/12/14 08:03:29;;;;;;;;;;;;;;;;;;5094646;28;19949;-83
2022/12/14 08:05:56;;;;;;;;;;;;;;;;;;5094692;28;19915;-84
2022/12/14 08:08:22;;;;;;;;;;;;;;;;;;5094495;28;19957;-83
2022/12/14 08:10:48;;;;;;;;;;;;;;;;;;5112094;28;19908;-83
2022/12/14 08:13:14;;;;;;;;;;;;;;;;;;5095982;28;19911;-83
2022/12/14 08:15:40;;;;;;;;;;;;;;;;;;5133391;28;20341;-83
2022/12/14 08:18:06;;;;;;;;;;;;;;;;;;5133391;28;19986;-84
2022/12/14 08:20:32;;;;;;;;;;;;;;;;;;5095604;28;19903;-84
2022/12/14 08:22:58;;;;;;;;;;;;;;;;;;5118395;28;20006;-83
2022/12/14 08:25:24;;;;;;;;;;;;;;;;;;5132624;28;19959;-83
2022/12/14 08:27:50;;;;;;;;;;;;;;;;;;5133171;28;19946;-83
2022/12/14 08:30:16;;;;;;;;;;;;;;;;;;5133339;28;19964;-83
2022/12/14 08:32:42;;;;;;;;;;;;;;;;;;5133302;28;19903;-83
2022/12/14 08:35:08;;;;;;;;;;;;;;;;;;5131212;28;19904;-83
2022/12/14 08:37:34;;;;;;;;;;;;;;;;;;5133157;28;19911;-83
2022/12/14 08:40:00;;;;;;;;;;;;;;;;;;5133155;28;20372;-83
2022/12/14 08:42:26;;;;;;;;;;;;;;;;;;5132880;28;19904;-83
2022/12/14 08:44:52;;;;;;;;;;;;;;;;;;5132668;28;19947;-83
2022/12/14 08:47:17;;;;;;;;;;;;;;;;;;5114533;28;19903;-83
2022/12/14 08:49:43;;;;;;;;;;;;;;;;;;5134226;27;19903;-83
2022/12/14 08:52:10;;;;;;;;;;;;;;;;;;5136660;27;19926;-84
2022/12/14 08:54:36;;;;;;;;;;;;;;;;;;5136774;27;20321;-83
2022/12/14 08:57:02;;;;;;;;;;;;;;;;;;5136647;27;19903;-83
2022/12/14 08:59:28;;;;;;;;;;;;;;;;;;5118288;27;19990;-84
2022/12/14 09:01:54;;;;;;;;;;;;;;;;;;5136476;27;20338;-84
2022/12/14 09:04:20;;;;;;;;;;;;;;;;;;5136391;27;19990;-84
2022/12/14 09:06:46;;;;;;;;;;;;;;;;;;5118330;27;19987;-84
2022/12/14 09:09:12;;;;;;;;;;;;;;;;;;5136410;27;19956;-84
2022/12/14 09:11:38;;;;;;;;;;;;;;;;;;5117855;27;19903;-84
2022/12/14 09:14:04;;;;;;;;;;;;;;;;;;5127343;27;19904;-85
2022/12/14 09:16:30;;;;;;;;;;;;;;;;;;5115463;28;19914;-84
2022/12/14 09:18:56;;;;;;;;;;;;;;;;;;5121279;27;19960;-84
2022/12/14 09:21:22;;;;;;;;;;;;;;;;;;5117578;27;19908;-84
2022/12/14 09:23:49;;;;;;;;;;;;;;;;;;5117690;27;19915;-84
2022/12/14 09:26:15;;;;;;;;;;;;;;;;;;5135864;27;19918;-84
2022/12/14 09:28:41;;;;;;;;;;;;;;;;;;5135613;27;20352;-84
2022/12/14 09:31:07;;;;;;;;;;;;;;;;;;5108132;27;19943;-84
2022/12/14 09:33:33;;;;;;;;;;;;;;;;;;5116934;27;20270;-84
2022/12/14 09:35:59;;;;;;;;;;;;;;;;;;5128725;27;20002;-85
2022/12/14 09:38:25;;;;;;;;;;;;;;;;;;5135697;27;19903;-85
2022/12/14 09:40:51;;;;;;;;;;;;;;;;;;5135929;27;19910;-85
2022/12/14 09:43:17;;;;;;;;;;;;;;;;;;5102805;28;19907;-83
2022/12/14 09:45:43;;;;;;;;;;;;;;;;;;5099340;28;20011;-84
2022/12/14 09:48:09;;;;;;;;;;;;;;;;;;5115275;28;19912;-84
2022/12/14 09:50:35;;;;;;;;;;;;;;;;;;5114997;28;19908;-84
2022/12/14 09:53:01;;;;;;;;;;;;;;;;;;5129542;27;20418;-84
2022/12/14 09:55:27;;;;;;;;;;;;;;;;;;5135766;27;20406;-84
2022/12/14 09:57:53;;;;;;;;;;;;;;;;;;5117232;27;19903;-84
2022/12/14 10:00:18;;;;;;;;;;;;;;;;;;5135030;27;19903;-84
2022/12/14 10:02:45;;;;;;;;;;;;;;;;;;5135645;27;19903;-84
2022/12/14 10:05:10;;;;;;;;;;;;;;;;;;5135327;27;20254;-84
2022/12/14 10:07:36;;;;;;;;;;;;;;;;;;5116953;27;20349;-84
2022/12/14 10:10:02;;;;;;;;;;;;;;;;;;5116964;27;19964;-84
2022/12/14 10:12:28;;;;;;;;;;;;;;;;;;5116837;27;19903;-84
2022/12/14 10:14:55;;;;;;;;;;;;;;;;;;5113276;28;19946;-84
2022/12/14 10:17:20;;;;;;;;;;;;;;;;;;5114693;28;20270;-84
2022/12/14 10:19:47;;;;;;;;;;;;;;;;;;5127822;27;19914;-82
2022/12/14 10:22:13;;;;;;;;;;;;;;;;;;5133792;27;20307;-83
2022/12/14 10:24:39;;;;;;;;;;;;;;;;;;5132899;27;19958;-83
2022/12/14 10:27:05;;;;;;;;;;;;;;;;;;5116232;27;20005;-83
2022/12/14 10:29:31;;;;;;;;;;;;;;;;;;5134085;27;20022;-82
2022/12/14 10:31:57;;;;;;;;;;;;;;;;;;5115914;27;20334;-83
2022/12/14 10:34:23;;;;;;;;;;;;;;;;;;5099220;28;19939;-82
2022/12/14 10:36:49;;;;;;;;;;;;;;;;;;5113970;28;19996;-83
2022/12/14 10:39:14;;;;;;;;;;;;;;;;;;5095726;28;19903;-82
2022/12/14 10:41:41;;;;;;;;;;;;;;;;;;5095717;28;19903;-83
2022/12/14 10:44:07;;;;;;;;;;;;;;;;;;5113968;28;19907;-83
2022/12/14 10:46:33;;;;;;;;;;;;;;;;;;5113902;28;19907;-83
2022/12/14 10:48:58;;;;;;;;;;;;;;;;;;5113823;28;19984;-83
2022/12/14 10:51:24;;;;;;;;;;;;;;;;;;5117823;27;19943;-82
2022/12/14 10:53:50;;;;;;;;;;;;;;;;;;5110055;27;19907;-87
2022/12/14 10:56:16;;;;;;;;;;;;;;;;;;5105797;27;20423;-84
2022/12/14 10:58:42;;;;;;;;;;;;;;;;;;5115901;27;20362;-84
2022/12/14 11:01:08;;;;;;;;;;;;;;;;;;5119008;27;19986;-83
2022/12/14 11:03:34;;;;;;;;;;;;;;;;;;5122807;27;19904;-83
2022/12/14 11:06:00;;;;;;;;;;;;;;;;;;5104518;28;20078;-83
2022/12/14 11:08:26;;;;;;;;;;;;;;;;;;5095284;28;20270;-83
2022/12/14 11:10:52;;;;;;;;;;;;;;;;;;5095007;28;19903;-83
2022/12/14 11:13:18;;;;;;;;;;;;;;;;;;5125026;27;19915;-83
2022/12/14 11:15:44;;;;;;;;;;;;;;;;;;5115353;27;19903;-82
2022/12/14 11:18:10;;;;;;;;;;;;;;;;;;5126626;27;19911;-82
2022/12/14 11:20:36;;;;;;;;;;;;;;;;;;5127853;27;19907;-83
2022/12/14 11:23:02;;;;;;;;;;;;;;;;;;5102600;27;19907;-83
2022/12/14 11:25:28;;;;;;;;;;;;;;;;;;5108694;28;20366;-83
2022/12/14 11:27:54;;;;;;;;;;;;;;;;;;5100492;28;20410;-82
2022/12/14 11:30:20;;;;;;;;;;;;;;;;;;5118409;27;20267;-83
2022/12/14 11:32:45;;;;;;;;;;;;;;;;;;5108800;28;20563;-83
2022/12/14 11:35:11;;;;;;;;;;;;;;;;;;5119994;28;19935;-83
2022/12/14 11:37:37;;;;;;;;;;;;;;;;;;5104231;28;19947;-83
2022/12/14 11:40:03;;;;;;;;;;;;;;;;;;5122943;28;19903;-83
2022/12/14 11:42:29;;;;;;;;;;;;;;;;;;5122378;28;19915;-83
2022/12/14 11:44:55;;;;;;;;;;;;;;;;;;5103834;28;19996;-83
2022/12/14 11:47:22;;;;;;;;;;;;;;;;;;5118917;28;19969;-83
2022/12/14 11:49:48;;;;;;;;;;;;;;;;;;5109621;28;19907;-83
2022/12/14 11:52:15;;;;;;;;;;;;;;;;;;5095195;28;20006;-83
2022/12/14 11:54:41;;;;;;;;;;;;;;;;;;5105863;28;20231;-84
2022/12/14 11:57:07;;;;;;;;;;;;;;;;;;5131143;28;19984;-83
2022/12/14 11:59:33;;;;;;;;;;;;;;;;;;5112786;28;19915;-83
2022/12/14 12:01:59;;;;;;;;;;;;;;;;;;5111877;28;20377;-83
2022/12/14 12:04:25;;;;;;;;;;;;;;;;;;5128796;28;20528;-84
2022/12/14 12:06:51;;;;;;;;;;;;;;;;;;5110137;28;19911;-83
2022/12/14 12:09:17;;;;;;;;;;;;;;;;;;5112047;28;19958;-83
2022/12/14 12:11:43;;;;;;;;;;;;;;;;;;5113109;28;19903;-84
2022/12/14 12:14:09;;;;;;;;;;;;;;;;;;5121514;28;19915;-83
2022/12/14 12:16:36;;;;;;;;;;;;;;;;;;5112287;28;19904;-83
2022/12/14 12:19:02;;;;;;;;;;;;;;;;;;5101790;28;20330;-84
2022/12/14 12:21:28;;;;;;;;;;;;;;;;;;5114674;28;19907;-83
2022/12/14 12:23:54;;;;;;;;;;;;;;;;;;5134353;27;20540;-83
2022/12/14 12:26:20;;;;;;;;;;;;;;;;;;5118344;27;19965;-84
2022/12/14 12:28:46;;;;;;;;;;;;;;;;;;5117878;27;19916;-83
2022/12/14 12:31:12;;;;;;;;;;;;;;;;;;5136584;27;19904;-84
2022/12/14 12:33:38;;;;;;;;;;;;;;;;;;5118468;27;19983;-83
2022/12/14 12:36:04;;;;;;;;;;;;;;;;;;5123570;27;19954;-84
2022/12/14 12:38:29;;;;;;;;;;;;;;;;;;5118339;27;19950;-83
2022/12/14 12:40:55;;;;;;;;;;;;;;;;;;5136883;27;19928;-84
2022/12/14 12:43:21;;;;;;;;;;;;;;;;;;5118399;27;19915;-84
2022/12/14 12:45:47;;;;;;;;;;;;;;;;;;5118156;27;19946;-84
2022/12/14 12:48:13;;;;;;;;;;;;;;;;;;5116580;27;20043;-84
2022/12/14 12:50:39;;;;;;;;;;;;;;;;;;5119500;27;20039;-85
2022/12/14 12:53:05;;;;;;;;;;;;;;;;;;5126484;27;19939;-84
2022/12/14 12:55:31;;;;;;;;;;;;;;;;;;5118352;27;19946;-84
2022/12/14 12:57:57;;;;;;;;;;;;;;;;;;5121376;27;19903;-84
2022/12/14 13:00:26;;;;;;;;;;;;;;;;;;5108336;28;19954;-84
2022/12/14 13:02:52;;;;;;;;;;;;;;;;;;5105667;28;19903;-84
2022/12/14 13:05:18;;;;;;;;;;;;;;;;;;5132440;27;19954;-83
2022/12/14 13:07:44;;;;;;;;;;;;;;;;;;5100864;27;19912;-83
2022/12/14 13:10:10;;;;;;;;;;;;;;;;;;5102413;28;19950;-84
2022/12/14 13:12:36;;;;;;;;;;;;;;;;;;5115306;28;20266;-84
2022/12/14 13:15:02;;;;;;;;;;;;;;;;;;5123714;27;20665;-84
2022/12/14 13:17:28;;;;;;;;;;;;;;;;;;5113631;27;19903;-83
2022/12/14 13:19:54;;;;;;;;;;;;;;;;;;5106827;28;19903;-83
2022/12/14 13:22:20;;;;;;;;;;;;;;;;;;5105369;27;19911;-84
2022/12/14 13:24:46;;;;;;;;;;;;;;;;;;5117271;27;19959;-84
2022/12/14 13:27:12;;;;;;;;;;;;;;;;;;5117274;27;19904;-84
2022/12/14 13:29:38;;;;;;;;;;;;;;;;;;5135570;27;19938;-84
2022/12/14 13:32:04;;;;;;;;;;;;;;;;;;5117323;27;19943;-84
2022/12/14 13:34:29;;;;;;;;;;;;;;;;;;5135572;27;19904;-84
2022/12/14 13:36:55;;;;;;;;;;;;;;;;;;5112109;27;19975;-84
2022/12/14 13:39:21;;;;;;;;;;;;;;;;;;5134612;27;20050;-83
2022/12/14 13:41:47;;;;;;;;;;;;;;;;;;5117149;27;19903;-84
2022/12/14 13:44:13;;;;;;;;;;;;;;;;;;5135484;27;19904;-84
2022/12/14 13:46:40;;;;;;;;;;;;;;;;;;5116805;27;20383;-84
2022/12/14 13:49:07;;;;;;;;;;;;;;;;;;5123156;27;19955;-84
2022/12/14 13:51:33;;;;;;;;;;;;;;;;;;5114673;28;19907;-84
2022/12/14 13:53:59;;;;;;;;;;;;;;;;;;5103474;27;19975;-84
2022/12/14 13:56:25;;;;;;;;;;;;;;;;;;5116465;27;19994;-85
2022/12/14 13:58:51;;;;;;;;;;;;;;;;;;5108795;27;19904;-84
2022/12/14 14:01:17;;;;;;;;;;;;;;;;;;5132679;27;19904;-84
2022/12/14 14:03:43;;;;;;;;;;;;;;;;;;5134568;27;19933;-82
2022/12/14 14:06:09;;;;;;;;;;;;;;;;;;5134439;27;19953;-84
2022/12/14 14:08:35;;;;;;;;;;;;;;;;;;5116343;27;19903;-84
2022/12/14 14:11:01;;;;;;;;;;;;;;;;;;5116428;27;19998;-85
2022/12/14 14:13:27;;;;;;;;;;;;;;;;;;5116337;27;19927;-85
2022/12/14 14:15:53;;;;;;;;;;;;;;;;;;5116329;27;19904;-84
2022/12/14 14:18:19;;;;;;;;;;;;;;;;;;5115625;27;19903;-90
2022/12/14 14:20:45;;;;;;;;;;;;;;;;;;5112001;28;19903;-84
2022/12/14 14:23:11;;;;;;;;;;;;;;;;;;5114365;28;19919;-84
2022/12/14 14:25:37;;;;;;;;;;;;;;;;;;5117777;27;20002;-83
2022/12/14 14:28:03;;;;;;;;;;;;;;;;;;5108858;28;20316;-82
2022/12/14 14:30:29;;;;;;;;;;;;;;;;;;5113685;28;20300;-82
2022/12/14 14:32:55;;;;;;;;;;;;;;;;;;5114007;28;19904;-83
2022/12/14 14:35:22;;;;;;;;;;;;;;;;;;5095006;28;19991;-83
2022/12/14 14:37:48;;;;;;;;;;;;;;;;;;5113563;28;19904;-83
2022/12/14 14:40:14;;;;;;;;;;;;;;;;;;5101888;27;19998;-83
2022/12/14 14:42:40;;;;;;;;;;;;;;;;;;5111745;28;20784;-83
2022/12/14 14:45:06;;;;;;;;;;;;;;;;;;5130740;27;19908;-83
2022/12/14 14:47:32;;;;;;;;;;;;;;;;;;5132444;27;19908;-83
2022/12/14 14:49:58;;;;;;;;;;;;;;;;;;5133959;27;20004;-83
2022/12/14 14:52:24;;;;;;;;;;;;;;;;;;5116226;27;19914;-83
2022/12/14 14:54:50;;;;;;;;;;;;;;;;;;5095432;28;20006;-84
2022/12/14 14:57:16;;;;;;;;;;;;;;;;;;5095316;28;19911;-83
2022/12/14 14:59:42;;;;;;;;;;;;;;;;;;5105125;27;19915;-83
2022/12/14 15:02:08;;;;;;;;;;;;;;;;;;5115042;27;19942;-83
2022/12/14 15:04:37;;;;;;;;;;;;;;;;;;5109111;28;19935;-84
2022/12/14 15:07:03;;;;;;;;;;;;;;;;;;5097869;27;20271;-83
2022/12/14 15:09:29;;;;;;;;;;;;;;;;;;5115241;27;19935;-83
2022/12/14 15:11:55;;;;;;;;;;;;;;;;;;5133580;27;19995;-83
2022/12/14 15:14:21;;;;;;;;;;;;;;;;;;5109541;27;19907;-83
2022/12/14 15:16:47;;;;;;;;;;;;;;;;;;5133659;27;20337;-83
2022/12/14 15:19:13;;;;;;;;;;;;;;;;;;5121784;27;20272;-82
2022/12/14 15:21:39;;;;;;;;;;;;;;;;;;5094630;28;19938;-83
2022/12/14 15:24:05;;;;;;;;;;;;;;;;;;5113010;28;19911;-81
2022/12/14 15:26:31;;;;;;;;;;;;;;;;;;5113160;28;19955;-86
2022/12/14 15:28:59;;;;;;;;;;;;;;;;;;5095121;28;19923;-85
2022/12/14 15:31:25;;;;;;;;;;;;;;;;;;5094940;28;20247;-82
2022/12/14 15:33:51;;;;;;;;;;;;;;;;;;5132911;27;20273;-82
2022/12/14 15:36:17;;;;;;;;;;;;;;;;;;5133737;27;19910;-80
2022/12/14 15:38:43;;;;;;;;;;;;;;;;;;5113001;28;19903;-80
2022/12/14 15:41:09;;;;;;;;;;;;;;;;;;5111931;28;19903;-79
2022/12/14 15:43:35;;;;;;;;;;;;;;;;;;5113131;28;20239;-80
2022/12/14 15:46:01;;;;;;;;;;;;;;;;;;5113161;28;19962;-81
2022/12/14 15:48:29;;;;;;;;;;;;;;;;;;5113423;28;20002;-81
2022/12/14 15:50:55;;;;;;;;;;;;;;;;;;5113262;28;19907;-83
2022/12/14 15:53:21;;;;;;;;;;;;;;;;;;5094958;28;19967;-79
2022/12/14 15:55:46;;;;;;;;;;;;;;;;;;5113857;28;19908;-83
2022/12/14 15:58:12;;;;;;;;;;;;;;;;;;5134169;27;19914;-80
2022/12/14 16:00:38;;;;;;;;;;;;;;;;;;5113868;27;19914;-79
2022/12/14 16:03:04;;;;;;;;;;;;;;;;;;5119345;27;19903;-79
2022/12/14 16:05:30;;;;;;;;;;;;;;;;;;5137698;27;19911;-79
2022/12/14 16:07:56;;;;;;;;;;;;;;;;;;5113527;27;19907;-80
2022/12/14 16:10:22;;;;;;;;;;;;;;;;;;5119446;27;20357;-79
2022/12/14 16:12:48;;;;;;;;;;;;;;;;;;5107414;28;20237;-80
2022/12/14 16:15:14;;;;;;;;;;;;;;;;;;5131024;27;19911;-80
2022/12/14 16:17:40;;;;;;;;;;;;;;;;;;5106298;28;20411;-80
2022/12/14 16:20:06;;;;;;;;;;;;;;;;;;5110516;27;19908;-80
2022/12/14 16:22:32;;;;;;;;;;;;;;;;;;5120493;27;20045;-80
2022/12/14 16:24:58;;;;;;;;;;;;;;;;;;5127147;27;20018;-80
2022/12/14 16:27:24;;;;;;;;;;;;;;;;;;5104752;28;19914;-80
2022/12/14 16:29:50;;;;;;;;;;;;;;;;;;5125311;27;19920;-79
2022/12/14 16:32:16;;;;;;;;;;;;;;;;;;5111671;28;19908;-80
2022/12/14 16:34:42;;;;;;;;;;;;;;;;;;5102184;27;19949;-80
2022/12/14 16:37:08;;;;;;;;;;;;;;;;;;5127147;27;19904;-80
2022/12/14 16:39:34;;;;;;;;;;;;;;;;;;5114194;27;19908;-80
2022/12/14 16:42:00;;;;;;;;;;;;;;;;;;5110817;27;19953;-80
2022/12/14 16:44:26;;;;;;;;;;;;;;;;;;5117824;27;19969;-80
2022/12/14 16:46:52;;;;;;;;;;;;;;;;;;5231924;22;20450;-76
2022/12/14 16:49:18;;;;;;;;;;;;;;;;;;5045185;28;19941;-76
2022/12/14 16:51:44;;;;;;;;;;;;;;;;;;5048878;28;19910;-76